SETU/TUA METAR and TAF weather

Enter ICAO airport designator
Station Type Date Time Source
SETU METAR 2020/07/07 14:00 UTC NOAA

SETU 071400Z 00000KT 9999 -DZ SCT020 OVC090 12/10 Q1033


Station Type Date Time Source
SETU Decoded METAR 2020/07/07 14:00 UTC NOAA

Tulcan / El Rosal, Ecuador (SETU) 00-49N 077-42W
Jul 07, 2020 - 10:00 AM EDT / 2020.07.07 1400 UTC
Wind: Calm:0
Visibility: greater than 7 mile(s):0
Sky conditions: overcast
Weather: light drizzle
Temperature: 53 F (12 C)
Dew Point: 50 F (10 C)
Relative Humidity: 87%
Pressure (altimeter): 30.50 in. Hg (1033 hPa)
ob: SETU 071400Z 00000KT 9999 -DZ SCT020 OVC090 12/10 Q1033
cycle: 14

Station Type Date Time Source
SETU TAF UTC NOAA

Error!

Example: see airport list